sensor_id;sensor_type;location;lat;lon;timestamp;P1;durP1;ratioP1;P2;durP2;ratioP2
27505;SDS011;14939;43.596;1.320;2022-08-20T00:00:40;8.60;;;4.10;;
27505;SDS011;14939;43.596;1.320;2022-08-20T00:03:12;7.00;;;4.22;;
27505;SDS011;14939;43.596;1.320;2022-08-20T00:05:44;6.25;;;4.30;;
27505;SDS011;14939;43.596;1.320;2022-08-20T00:08:13;5.63;;;4.18;;
27505;SDS011;14939;43.596;1.320;2022-08-20T00:10:41;4.78;;;4.10;;
27505;SDS011;14939;43.596;1.320;2022-08-20T00:13:09;5.95;;;4.50;;
27505;SDS011;14939;43.596;1.320;2022-08-20T00:15:38;6.22;;;4.57;;
27505;SDS011;14939;43.596;1.320;2022-08-20T00:18:04;6.78;;;4.40;;
27505;SDS011;14939;43.596;1.320;2022-08-20T00:20:31;8.77;;;5.13;;
27505;SDS011;14939;43.596;1.320;2022-08-20T00:23:05;7.63;;;4.53;;
27505;SDS011;14939;43.596;1.320;2022-08-20T00:25:30;5.68;;;4.72;;
27505;SDS011;14939;43.596;1.320;2022-08-20T00:27:56;7.65;;;4.78;;
27505;SDS011;14939;43.596;1.320;2022-08-20T00:30:23;5.32;;;4.78;;
27505;SDS011;14939;43.596;1.320;2022-08-20T00:32:51;9.30;;;4.88;;
27505;SDS011;14939;43.596;1.320;2022-08-20T00:35:21;8.43;;;5.25;;
27505;SDS011;14939;43.596;1.320;2022-08-20T00:37:48;8.68;;;5.40;;
27505;SDS011;14939;43.596;1.320;2022-08-20T00:40:14;6.03;;;5.03;;
27505;SDS011;14939;43.596;1.320;2022-08-20T00:42:42;5.45;;;4.80;;
27505;SDS011;14939;43.596;1.320;2022-08-20T00:45:11;6.15;;;5.00;;
27505;SDS011;14939;43.596;1.320;2022-08-20T00:47:37;5.97;;;5.10;;
27505;SDS011;14939;43.596;1.320;2022-08-20T00:50:11;5.90;;;5.22;;
27505;SDS011;14939;43.596;1.320;2022-08-20T00:52:39;7.05;;;4.88;;
27505;SDS011;14939;43.596;1.320;2022-08-20T00:55:07;6.35;;;5.55;;
27505;SDS011;14939;43.596;1.320;2022-08-20T00:58:08;9.77;;;5.65;;
27505;SDS011;14939;43.596;1.320;2022-08-20T01:00:40;6.43;;;5.25;;
27505;SDS011;14939;43.596;1.320;2022-08-20T01:03:09;7.68;;;5.95;;
27505;SDS011;14939;43.596;1.320;2022-08-20T01:05:37;6.97;;;5.38;;
27505;SDS011;14939;43.596;1.320;2022-08-20T01:08:04;6.53;;;5.10;;
27505;SDS011;14939;43.596;1.320;2022-08-20T01:10:34;9.25;;;5.65;;
27505;SDS011;14939;43.596;1.320;2022-08-20T01:13:03;7.70;;;5.47;;
27505;SDS011;14939;43.596;1.320;2022-08-20T01:15:34;8.85;;;6.13;;
27505;SDS011;14939;43.596;1.320;2022-08-20T01:18:02;7.72;;;5.47;;
27505;SDS011;14939;43.596;1.320;2022-08-20T01:25:53;7.55;;;5.35;;
27505;SDS011;14939;43.596;1.320;2022-08-20T01:28:21;7.72;;;5.60;;
27505;SDS011;14939;43.596;1.320;2022-08-20T01:30:50;8.50;;;6.00;;
27505;SDS011;14939;43.596;1.320;2022-08-20T01:33:17;10.63;;;6.05;;
27505;SDS011;14939;43.596;1.320;2022-08-20T01:35:43;11.20;;;6.45;;
27505;SDS011;14939;43.596;1.320;2022-08-20T01:38:10;9.45;;;5.95;;
27505;SDS011;14939;43.596;1.320;2022-08-20T01:43:38;10.23;;;6.03;;
27505;SDS011;14939;43.596;1.320;2022-08-20T01:46:06;7.15;;;5.90;;
27505;SDS011;14939;43.596;1.320;2022-08-20T01:48:36;7.43;;;6.13;;
27505;SDS011;14939;43.596;1.320;2022-08-20T01:51:08;7.88;;;5.60;;
27505;SDS011;14939;43.596;1.320;2022-08-20T01:53:41;8.50;;;6.30;;
27505;SDS011;14939;43.596;1.320;2022-08-20T01:56:12;8.35;;;6.18;;
27505;SDS011;14939;43.596;1.320;2022-08-20T01:58:43;7.53;;;6.20;;
27505;SDS011;14939;43.596;1.320;2022-08-20T02:04:08;8.63;;;6.20;;
27505;SDS011;14939;43.596;1.320;2022-08-20T02:06:36;8.90;;;5.65;;
27505;SDS011;14939;43.596;1.320;2022-08-20T02:09:05;8.50;;;5.72;;
27505;SDS011;14939;43.596;1.320;2022-08-20T02:11:32;10.43;;;6.20;;
27505;SDS011;14939;43.596;1.320;2022-08-20T02:13:59;9.32;;;6.30;;
27505;SDS011;14939;43.596;1.320;2022-08-20T02:16:27;12.48;;;6.47;;
27505;SDS011;14939;43.596;1.320;2022-08-20T02:18:57;7.90;;;6.10;;
27505;SDS011;14939;43.596;1.320;2022-08-20T02:21:28;7.63;;;6.00;;
27505;SDS011;14939;43.596;1.320;2022-08-20T02:23:57;6.97;;;6.00;;
27505;SDS011;14939;43.596;1.320;2022-08-20T02:26:23;8.77;;;6.20;;
27505;SDS011;14939;43.596;1.320;2022-08-20T02:28:50;7.80;;;6.20;;
27505;SDS011;14939;43.596;1.320;2022-08-20T02:31:17;10.25;;;6.65;;
27505;SDS011;14939;43.596;1.320;2022-08-20T02:33:45;9.75;;;6.25;;
27505;SDS011;14939;43.596;1.320;2022-08-20T02:36:12;8.73;;;6.30;;
27505;SDS011;14939;43.596;1.320;2022-08-20T02:38:39;10.27;;;6.30;;
27505;SDS011;14939;43.596;1.320;2022-08-20T02:41:06;7.80;;;6.38;;
27505;SDS011;14939;43.596;1.320;2022-08-20T02:43:33;6.50;;;5.65;;
27505;SDS011;14939;43.596;1.320;2022-08-20T02:45:59;8.02;;;6.18;;
27505;SDS011;14939;43.596;1.320;2022-08-20T02:48:25;9.10;;;6.30;;
27505;SDS011;14939;43.596;1.320;2022-08-20T02:50:52;7.13;;;6.20;;
27505;SDS011;14939;43.596;1.320;2022-08-20T02:53:20;9.32;;;5.93;;
27505;SDS011;14939;43.596;1.320;2022-08-20T02:55:47;7.75;;;6.40;;
27505;SDS011;14939;43.596;1.320;2022-08-20T02:58:13;6.60;;;5.88;;
27505;SDS011;14939;43.596;1.320;2022-08-20T03:00:40;8.38;;;6.07;;
27505;SDS011;14939;43.596;1.320;2022-08-20T03:03:07;9.52;;;6.30;;
27505;SDS011;14939;43.596;1.320;2022-08-20T03:05:35;10.93;;;6.35;;
27505;SDS011;14939;43.596;1.320;2022-08-20T03:08:02;11.48;;;6.07;;
27505;SDS011;14939;43.596;1.320;2022-08-20T03:10:29;8.85;;;6.35;;
27505;SDS011;14939;43.596;1.320;2022-08-20T03:12:57;7.93;;;6.50;;
27505;SDS011;14939;43.596;1.320;2022-08-20T03:15:26;7.18;;;6.07;;
27505;SDS011;14939;43.596;1.320;2022-08-20T03:17:53;8.93;;;6.13;;
27505;SDS011;14939;43.596;1.320;2022-08-20T03:20:19;8.65;;;6.47;;
27505;SDS011;14939;43.596;1.320;2022-08-20T03:22:46;8.10;;;6.38;;
27505;SDS011;14939;43.596;1.320;2022-08-20T03:25:13;8.57;;;6.05;;
27505;SDS011;14939;43.596;1.320;2022-08-20T03:27:39;8.85;;;6.50;;
27505;SDS011;14939;43.596;1.320;2022-08-20T03:30:06;8.95;;;6.97;;
27505;SDS011;14939;43.596;1.320;2022-08-20T03:32:33;11.30;;;6.80;;
27505;SDS011;14939;43.596;1.320;2022-08-20T03:35:00;12.27;;;7.00;;
27505;SDS011;14939;43.596;1.320;2022-08-20T03:37:31;9.60;;;6.78;;
27505;SDS011;14939;43.596;1.320;2022-08-20T03:39:58;8.80;;;6.60;;
27505;SDS011;14939;43.596;1.320;2022-08-20T03:42:24;7.57;;;6.20;;
27505;SDS011;14939;43.596;1.320;2022-08-20T03:44:50;12.60;;;6.97;;
27505;SDS011;14939;43.596;1.320;2022-08-20T03:47:17;10.93;;;6.80;;
27505;SDS011;14939;43.596;1.320;2022-08-20T03:49:43;9.88;;;7.13;;
27505;SDS011;14939;43.596;1.320;2022-08-20T03:52:08;9.05;;;6.65;;
27505;SDS011;14939;43.596;1.320;2022-08-20T03:54:34;9.80;;;6.95;;
27505;SDS011;14939;43.596;1.320;2022-08-20T03:57:00;8.60;;;7.20;;
27505;SDS011;14939;43.596;1.320;2022-08-20T03:59:28;11.85;;;7.55;;
27505;SDS011;14939;43.596;1.320;2022-08-20T04:01:57;12.90;;;6.65;;
27505;SDS011;14939;43.596;1.320;2022-08-20T04:04:23;9.13;;;7.05;;
27505;SDS011;14939;43.596;1.320;2022-08-20T04:06:49;9.38;;;6.90;;
27505;SDS011;14939;43.596;1.320;2022-08-20T04:09:15;8.60;;;6.95;;
27505;SDS011;14939;43.596;1.320;2022-08-20T04:11:42;12.52;;;7.00;;
27505;SDS011;14939;43.596;1.320;2022-08-20T04:14:08;9.50;;;7.03;;
27505;SDS011;14939;43.596;1.320;2022-08-20T04:16:35;13.32;;;7.30;;
27505;SDS011;14939;43.596;1.320;2022-08-20T04:19:02;8.25;;;6.75;;
27505;SDS011;14939;43.596;1.320;2022-08-20T04:21:29;8.20;;;6.78;;
27505;SDS011;14939;43.596;1.320;2022-08-20T04:23:55;8.50;;;6.72;;
27505;SDS011;14939;43.596;1.320;2022-08-20T04:26:22;9.75;;;7.20;;
27505;SDS011;14939;43.596;1.320;2022-08-20T04:28:47;8.07;;;6.85;;
27505;SDS011;14939;43.596;1.320;2022-08-20T04:31:17;8.55;;;7.05;;
27505;SDS011;14939;43.596;1.320;2022-08-20T04:33:42;8.40;;;7.10;;
27505;SDS011;14939;43.596;1.320;2022-08-20T04:36:08;10.13;;;7.80;;
27505;SDS011;14939;43.596;1.320;2022-08-20T04:38:34;10.25;;;7.68;;
27505;SDS011;14939;43.596;1.320;2022-08-20T04:41:00;10.45;;;7.85;;
27505;SDS011;14939;43.596;1.320;2022-08-20T04:43:30;9.80;;;7.35;;
27505;SDS011;14939;43.596;1.320;2022-08-20T04:46:02;10.32;;;8.00;;
27505;SDS011;14939;43.596;1.320;2022-08-20T04:48:30;10.18;;;8.50;;
27505;SDS011;14939;43.596;1.320;2022-08-20T04:50:57;9.80;;;7.85;;
27505;SDS011;14939;43.596;1.320;2022-08-20T04:53:24;10.98;;;7.60;;
27505;SDS011;14939;43.596;1.320;2022-08-20T04:55:52;9.50;;;7.70;;
27505;SDS011;14939;43.596;1.320;2022-08-20T04:58:24;8.32;;;7.10;;
27505;SDS011;14939;43.596;1.320;2022-08-20T05:00:59;11.23;;;7.90;;
27505;SDS011;14939;43.596;1.320;2022-08-20T05:03:30;10.77;;;7.80;;
27505;SDS011;14939;43.596;1.320;2022-08-20T05:05:56;11.77;;;7.60;;
27505;SDS011;14939;43.596;1.320;2022-08-20T05:08:22;10.73;;;7.65;;
27505;SDS011;14939;43.596;1.320;2022-08-20T05:10:49;10.73;;;7.68;;
27505;SDS011;14939;43.596;1.320;2022-08-20T05:13:17;9.63;;;7.40;;
27505;SDS011;14939;43.596;1.320;2022-08-20T05:15:43;8.38;;;7.15;;
27505;SDS011;14939;43.596;1.320;2022-08-20T05:18:12;9.73;;;7.07;;
27505;SDS011;14939;43.596;1.320;2022-08-20T05:20:44;10.65;;;7.43;;
27505;SDS011;14939;43.596;1.320;2022-08-20T05:23:11;12.60;;;7.88;;
27505;SDS011;14939;43.596;1.320;2022-08-20T05:25:38;9.60;;;7.40;;
27505;SDS011;14939;43.596;1.320;2022-08-20T05:28:06;8.88;;;7.55;;
27505;SDS011;14939;43.596;1.320;2022-08-20T05:30:37;10.02;;;8.02;;
27505;SDS011;14939;43.596;1.320;2022-08-20T05:35:35;11.50;;;7.30;;
27505;SDS011;14939;43.596;1.320;2022-08-20T05:38:09;11.95;;;7.00;;
27505;SDS011;14939;43.596;1.320;2022-08-20T05:40:38;9.25;;;7.30;;
27505;SDS011;14939;43.596;1.320;2022-08-20T05:43:05;9.90;;;7.10;;
27505;SDS011;14939;43.596;1.320;2022-08-20T05:45:32;10.90;;;7.35;;
27505;SDS011;14939;43.596;1.320;2022-08-20T05:48:08;9.55;;;7.30;;
27505;SDS011;14939;43.596;1.320;2022-08-20T05:50:36;11.65;;;7.70;;
27505;SDS011;14939;43.596;1.320;2022-08-20T05:53:03;10.93;;;7.63;;
27505;SDS011;14939;43.596;1.320;2022-08-20T05:55:29;9.80;;;7.45;;
27505;SDS011;14939;43.596;1.320;2022-08-20T05:57:58;9.90;;;7.28;;
27505;SDS011;14939;43.596;1.320;2022-08-20T06:00:26;11.00;;;7.38;;
27505;SDS011;14939;43.596;1.320;2022-08-20T06:02:53;10.45;;;7.45;;
27505;SDS011;14939;43.596;1.320;2022-08-20T06:05:37;12.73;;;7.53;;
27505;SDS011;14939;43.596;1.320;2022-08-20T06:08:07;10.25;;;7.28;;
27505;SDS011;14939;43.596;1.320;2022-08-20T06:10:34;10.30;;;7.30;;
27505;SDS011;14939;43.596;1.320;2022-08-20T06:13:01;10.77;;;7.20;;
27505;SDS011;14939;43.596;1.320;2022-08-20T06:15:28;10.38;;;7.40;;
27505;SDS011;14939;43.596;1.320;2022-08-20T06:17:54;11.88;;;7.15;;
27505;SDS011;14939;43.596;1.320;2022-08-20T06:20:20;9.40;;;6.70;;
27505;SDS011;14939;43.596;1.320;2022-08-20T06:22:47;10.98;;;6.60;;
27505;SDS011;14939;43.596;1.320;2022-08-20T06:25:12;10.95;;;6.82;;
27505;SDS011;14939;43.596;1.320;2022-08-20T06:27:39;7.65;;;6.43;;
27505;SDS011;14939;43.596;1.320;2022-08-20T06:30:07;8.48;;;6.68;;
27505;SDS011;14939;43.596;1.320;2022-08-20T06:32:34;10.60;;;6.68;;
27505;SDS011;14939;43.596;1.320;2022-08-20T06:35:00;8.23;;;6.00;;
27505;SDS011;14939;43.596;1.320;2022-08-20T06:37:28;8.75;;;6.18;;
27505;SDS011;14939;43.596;1.320;2022-08-20T06:39:58;9.07;;;6.43;;
27505;SDS011;14939;43.596;1.320;2022-08-20T06:42:26;8.77;;;6.35;;
27505;SDS011;14939;43.596;1.320;2022-08-20T06:44:52;9.90;;;6.40;;
27505;SDS011;14939;43.596;1.320;2022-08-20T06:47:18;9.50;;;6.18;;
27505;SDS011;14939;43.596;1.320;2022-08-20T06:49:45;7.82;;;5.93;;
27505;SDS011;14939;43.596;1.320;2022-08-20T06:52:12;8.63;;;5.78;;
27505;SDS011;14939;43.596;1.320;2022-08-20T06:54:44;8.32;;;6.05;;
27505;SDS011;14939;43.596;1.320;2022-08-20T06:57:10;9.10;;;5.90;;
27505;SDS011;14939;43.596;1.320;2022-08-20T06:59:36;7.55;;;5.57;;
27505;SDS011;14939;43.596;1.320;2022-08-20T07:02:02;7.28;;;5.22;;
27505;SDS011;14939;43.596;1.320;2022-08-20T07:04:28;7.00;;;5.63;;
27505;SDS011;14939;43.596;1.320;2022-08-20T07:06:54;6.85;;;5.57;;
27505;SDS011;14939;43.596;1.320;2022-08-20T07:09:21;9.75;;;5.85;;
27505;SDS011;14939;43.596;1.320;2022-08-20T07:11:48;6.75;;;5.05;;
27505;SDS011;14939;43.596;1.320;2022-08-20T07:14:14;5.95;;;5.28;;
27505;SDS011;14939;43.596;1.320;2022-08-20T07:16:41;7.32;;;4.93;;
27505;SDS011;14939;43.596;1.320;2022-08-20T07:19:08;7.28;;;4.88;;
27505;SDS011;14939;43.596;1.320;2022-08-20T07:21:34;6.22;;;4.70;;
27505;SDS011;14939;43.596;1.320;2022-08-20T07:24:00;5.85;;;4.25;;
27505;SDS011;14939;43.596;1.320;2022-08-20T07:26:26;7.50;;;4.65;;
27505;SDS011;14939;43.596;1.320;2022-08-20T07:28:52;7.45;;;4.10;;
27505;SDS011;14939;43.596;1.320;2022-08-20T07:31:18;4.75;;;4.25;;
27505;SDS011;14939;43.596;1.320;2022-08-20T07:34:03;5.57;;;4.50;;
27505;SDS011;14939;43.596;1.320;2022-08-20T07:36:29;6.35;;;4.05;;
27505;SDS011;14939;43.596;1.320;2022-08-20T07:38:55;8.63;;;4.22;;
27505;SDS011;14939;43.596;1.320;2022-08-20T07:41:21;4.65;;;4.20;;
27505;SDS011;14939;43.596;1.320;2022-08-20T07:43:46;5.57;;;4.00;;
27505;SDS011;14939;43.596;1.320;2022-08-20T07:46:14;3.65;;;3.35;;
27505;SDS011;14939;43.596;1.320;2022-08-20T07:48:42;8.50;;;3.75;;
27505;SDS011;14939;43.596;1.320;2022-08-20T07:51:14;5.25;;;3.38;;
27505;SDS011;14939;43.596;1.320;2022-08-20T07:53:42;2.65;;;2.40;;
27505;SDS011;14939;43.596;1.320;2022-08-20T07:56:10;3.05;;;2.75;;
27505;SDS011;14939;43.596;1.320;2022-08-20T07:58:38;2.95;;;2.40;;
27505;SDS011;14939;43.596;1.320;2022-08-20T08:01:06;3.60;;;2.50;;
27505;SDS011;14939;43.596;1.320;2022-08-20T08:03:34;3.97;;;2.47;;
27505;SDS011;14939;43.596;1.320;2022-08-20T08:06:02;3.22;;;2.35;;
27505;SDS011;14939;43.596;1.320;2022-08-20T08:08:30;4.65;;;2.67;;
27505;SDS011;14939;43.596;1.320;2022-08-20T08:10:58;3.97;;;2.47;;
27505;SDS011;14939;43.596;1.320;2022-08-20T08:13:26;4.03;;;2.17;;
27505;SDS011;14939;43.596;1.320;2022-08-20T08:15:56;3.25;;;2.20;;
27505;SDS011;14939;43.596;1.320;2022-08-20T08:18:25;5.03;;;2.10;;
27505;SDS011;14939;43.596;1.320;2022-08-20T08:20:55;2.80;;;2.35;;
27505;SDS011;14939;43.596;1.320;2022-08-20T08:23:22;3.50;;;2.15;;
27505;SDS011;14939;43.596;1.320;2022-08-20T08:25:49;3.10;;;2.20;;
27505;SDS011;14939;43.596;1.320;2022-08-20T08:28:18;4.95;;;2.15;;
27505;SDS011;14939;43.596;1.320;2022-08-20T08:30:46;4.00;;;1.88;;
27505;SDS011;14939;43.596;1.320;2022-08-20T08:33:26;3.45;;;2.38;;
27505;SDS011;14939;43.596;1.320;2022-08-20T08:36:02;4.03;;;1.90;;
27505;SDS011;14939;43.596;1.320;2022-08-20T08:38:30;4.90;;;2.28;;
27505;SDS011;14939;43.596;1.320;2022-08-20T08:41:03;2.70;;;2.00;;
27505;SDS011;14939;43.596;1.320;2022-08-20T08:43:47;4.25;;;2.15;;
27505;SDS011;14939;43.596;1.320;2022-08-20T08:46:18;2.22;;;1.90;;
27505;SDS011;14939;43.596;1.320;2022-08-20T08:48:48;2.65;;;2.00;;
27505;SDS011;14939;43.596;1.320;2022-08-20T08:51:19;1.92;;;1.58;;
27505;SDS011;14939;43.596;1.320;2022-08-20T08:53:52;3.88;;;1.85;;
27505;SDS011;14939;43.596;1.320;2022-08-20T08:56:19;3.20;;;1.92;;
27505;SDS011;14939;43.596;1.320;2022-08-20T08:58:50;1.70;;;1.60;;
27505;SDS011;14939;43.596;1.320;2022-08-20T09:01:19;2.85;;;1.90;;
27505;SDS011;14939;43.596;1.320;2022-08-20T09:03:57;3.50;;;1.50;;
27505;SDS011;14939;43.596;1.320;2022-08-20T09:06:25;1.85;;;1.30;;
27505;SDS011;14939;43.596;1.320;2022-08-20T09:08:53;1.85;;;1.48;;
27505;SDS011;14939;43.596;1.320;2022-08-20T09:11:22;1.58;;;1.45;;
27505;SDS011;14939;43.596;1.320;2022-08-20T09:13:48;3.28;;;1.33;;
27505;SDS011;14939;43.596;1.320;2022-08-20T09:16:15;3.08;;;1.20;;
27505;SDS011;14939;43.596;1.320;2022-08-20T09:18:41;2.63;;;1.30;;
27505;SDS011;14939;43.596;1.320;2022-08-20T09:21:07;1.40;;;1.00;;
27505;SDS011;14939;43.596;1.320;2022-08-20T09:23:33;2.13;;;1.05;;
27505;SDS011;14939;43.596;1.320;2022-08-20T09:25:59;1.10;;;1.00;;
27505;SDS011;14939;43.596;1.320;2022-08-20T09:28:25;3.13;;;0.80;;
27505;SDS011;14939;43.596;1.320;2022-08-20T09:30:51;1.27;;;0.70;;
27505;SDS011;14939;43.596;1.320;2022-08-20T09:33:17;1.70;;;0.80;;
27505;SDS011;14939;43.596;1.320;2022-08-20T09:35:43;1.58;;;0.70;;
27505;SDS011;14939;43.596;1.320;2022-08-20T09:38:10;1.45;;;0.70;;
27505;SDS011;14939;43.596;1.320;2022-08-20T09:40:36;1.85;;;1.20;;
27505;SDS011;14939;43.596;1.320;2022-08-20T09:43:05;1.08;;;0.60;;
27505;SDS011;14939;43.596;1.320;2022-08-20T09:45:31;2.20;;;0.80;;
27505;SDS011;14939;43.596;1.320;2022-08-20T09:47:57;1.20;;;0.90;;
27505;SDS011;14939;43.596;1.320;2022-08-20T09:50:28;1.52;;;1.02;;
27505;SDS011;14939;43.596;1.320;2022-08-20T09:52:56;1.88;;;1.15;;
27505;SDS011;14939;43.596;1.320;2022-08-20T09:55:26;2.72;;;1.15;;
27505;SDS011;14939;43.596;1.320;2022-08-20T09:58:49;1.15;;;0.88;;
27505;SDS011;14939;43.596;1.320;2022-08-20T10:01:00;1.92;;;1.00;;
27505;SDS011;14939;43.596;1.320;2022-08-20T10:03:32;0.98;;;0.80;;
27505;SDS011;14939;43.596;1.320;2022-08-20T10:05:58;3.40;;;1.00;;
27505;SDS011;14939;43.596;1.320;2022-08-20T10:08:24;1.45;;;0.90;;
27505;SDS011;14939;43.596;1.320;2022-08-20T10:10:50;0.90;;;0.70;;
27505;SDS011;14939;43.596;1.320;2022-08-20T10:13:16;1.98;;;1.02;;
27505;SDS011;14939;43.596;1.320;2022-08-20T10:15:41;1.33;;;0.90;;
27505;SDS011;14939;43.596;1.320;2022-08-20T10:18:07;1.83;;;0.73;;
27505;SDS011;14939;43.596;1.320;2022-08-20T10:20:33;1.33;;;0.80;;
27505;SDS011;14939;43.596;1.320;2022-08-20T10:22:59;1.42;;;0.68;;
27505;SDS011;14939;43.596;1.320;2022-08-20T10:25:25;1.15;;;0.68;;
27505;SDS011;14939;43.596;1.320;2022-08-20T10:27:52;1.55;;;0.70;;
27505;SDS011;14939;43.596;1.320;2022-08-20T10:30:19;1.10;;;0.82;;
27505;SDS011;14939;43.596;1.320;2022-08-20T10:32:44;1.23;;;0.73;;
27505;SDS011;14939;43.596;1.320;2022-08-20T10:35:10;1.67;;;0.60;;
27505;SDS011;14939;43.596;1.320;2022-08-20T10:37:36;35.42;;;2.72;;
27505;SDS011;14939;43.596;1.320;2022-08-20T10:40:02;3.25;;;0.80;;
27505;SDS011;14939;43.596;1.320;2022-08-20T10:42:29;0.60;;;0.60;;
27505;SDS011;14939;43.596;1.320;2022-08-20T10:44:55;1.98;;;0.73;;
27505;SDS011;14939;43.596;1.320;2022-08-20T10:47:21;2.95;;;0.80;;
27505;SDS011;14939;43.596;1.320;2022-08-20T10:49:51;1.73;;;0.73;;
27505;SDS011;14939;43.596;1.320;2022-08-20T10:52:19;1.17;;;0.68;;
27505;SDS011;14939;43.596;1.320;2022-08-20T10:54:45;1.98;;;1.00;;
27505;SDS011;14939;43.596;1.320;2022-08-20T10:57:15;1.92;;;0.60;;
27505;SDS011;14939;43.596;1.320;2022-08-20T10:59:43;1.00;;;0.87;;
27505;SDS011;14939;43.596;1.320;2022-08-20T11:02:10;2.33;;;1.00;;
27505;SDS011;14939;43.596;1.320;2022-08-20T11:04:37;1.95;;;1.00;;
27505;SDS011;14939;43.596;1.320;2022-08-20T11:09:36;1.20;;;0.88;;
27505;SDS011;14939;43.596;1.320;2022-08-20T11:12:02;1.65;;;0.98;;
27505;SDS011;14939;43.596;1.320;2022-08-20T11:14:28;1.42;;;0.70;;
27505;SDS011;14939;43.596;1.320;2022-08-20T11:16:53;1.33;;;0.77;;
27505;SDS011;14939;43.596;1.320;2022-08-20T11:19:19;1.85;;;0.75;;
27505;SDS011;14939;43.596;1.320;2022-08-20T11:21:45;15.32;;;13.27;;
27505;SDS011;14939;43.596;1.320;2022-08-20T11:24:10;0.70;;;0.70;;
27505;SDS011;14939;43.596;1.320;2022-08-20T11:26:36;1.27;;;0.70;;
27505;SDS011;14939;43.596;1.320;2022-08-20T11:29:02;1.23;;;0.80;;
27505;SDS011;14939;43.596;1.320;2022-08-20T11:31:28;1.10;;;0.50;;
27505;SDS011;14939;43.596;1.320;2022-08-20T11:33:53;0.52;;;0.50;;
27505;SDS011;14939;43.596;1.320;2022-08-20T11:36:19;2.05;;;0.60;;
27505;SDS011;14939;43.596;1.320;2022-08-20T11:38:45;1.48;;;0.70;;
27505;SDS011;14939;43.596;1.320;2022-08-20T11:41:11;2.05;;;0.70;;
27505;SDS011;14939;43.596;1.320;2022-08-20T11:43:37;3.05;;;0.60;;
27505;SDS011;14939;43.596;1.320;2022-08-20T11:46:03;1.40;;;0.52;;
27505;SDS011;14939;43.596;1.320;2022-08-20T11:48:28;0.52;;;0.50;;
27505;SDS011;14939;43.596;1.320;2022-08-20T11:50:54;0.75;;;0.60;;
27505;SDS011;14939;43.596;1.320;2022-08-20T11:53:20;0.65;;;0.63;;
27505;SDS011;14939;43.596;1.320;2022-08-20T11:55:45;1.48;;;0.50;;
27505;SDS011;14939;43.596;1.320;2022-08-20T11:58:11;0.75;;;0.43;;
27505;SDS011;14939;43.596;1.320;2022-08-20T12:00:37;1.15;;;0.50;;
27505;SDS011;14939;43.596;1.320;2022-08-20T12:03:04;1.85;;;0.70;;
27505;SDS011;14939;43.596;1.320;2022-08-20T12:05:31;0.60;;;0.60;;
27505;SDS011;14939;43.596;1.320;2022-08-20T12:07:58;0.80;;;0.60;;
27505;SDS011;14939;43.596;1.320;2022-08-20T12:10:25;0.88;;;0.60;;
27505;SDS011;14939;43.596;1.320;2022-08-20T12:12:52;2.75;;;0.50;;
27505;SDS011;14939;43.596;1.320;2022-08-20T12:15:18;0.82;;;0.40;;
27505;SDS011;14939;43.596;1.320;2022-08-20T12:17:44;1.38;;;0.52;;
27505;SDS011;14939;43.596;1.320;2022-08-20T12:20:10;2.67;;;0.50;;
27505;SDS011;14939;43.596;1.320;2022-08-20T12:22:37;1.67;;;0.60;;
27505;SDS011;14939;43.596;1.320;2022-08-20T12:25:04;0.50;;;0.50;;
27505;SDS011;14939;43.596;1.320;2022-08-20T12:27:31;1.35;;;0.50;;
27505;SDS011;14939;43.596;1.320;2022-08-20T12:29:58;1.45;;;0.70;;
27505;SDS011;14939;43.596;1.320;2022-08-20T12:32:26;1.85;;;0.60;;
27505;SDS011;14939;43.596;1.320;2022-08-20T12:34:54;3.38;;;0.63;;
27505;SDS011;14939;43.596;1.320;2022-08-20T12:37:21;0.98;;;0.50;;
27505;SDS011;14939;43.596;1.320;2022-08-20T12:39:50;3.33;;;0.50;;
27505;SDS011;14939;43.596;1.320;2022-08-20T12:42:17;2.17;;;0.60;;
27505;SDS011;14939;43.596;1.320;2022-08-20T12:44:44;1.02;;;0.50;;
27505;SDS011;14939;43.596;1.320;2022-08-20T12:47:14;0.85;;;0.70;;
27505;SDS011;14939;43.596;1.320;2022-08-20T12:49:43;1.42;;;0.70;;
27505;SDS011;14939;43.596;1.320;2022-08-20T12:52:11;1.00;;;0.50;;
27505;SDS011;14939;43.596;1.320;2022-08-20T12:54:38;2.63;;;0.50;;
27505;SDS011;14939;43.596;1.320;2022-08-20T12:57:04;1.45;;;0.50;;
27505;SDS011;14939;43.596;1.320;2022-08-20T12:59:31;1.13;;;0.43;;
27505;SDS011;14939;43.596;1.320;2022-08-20T13:01:57;1.00;;;0.50;;
27505;SDS011;14939;43.596;1.320;2022-08-20T13:04:23;0.95;;;0.40;;
27505;SDS011;14939;43.596;1.320;2022-08-20T13:06:49;2.38;;;0.50;;
27505;SDS011;14939;43.596;1.320;2022-08-20T13:09:15;0.90;;;0.60;;
27505;SDS011;14939;43.596;1.320;2022-08-20T13:11:41;0.80;;;0.40;;
27505;SDS011;14939;43.596;1.320;2022-08-20T13:14:07;0.90;;;0.60;;
27505;SDS011;14939;43.596;1.320;2022-08-20T13:16:33;0.40;;;0.40;;
27505;SDS011;14939;43.596;1.320;2022-08-20T13:19:00;1.10;;;0.47;;
27505;SDS011;14939;43.596;1.320;2022-08-20T13:21:25;0.73;;;0.47;;
27505;SDS011;14939;43.596;1.320;2022-08-20T13:23:51;0.60;;;0.50;;
27505;SDS011;14939;43.596;1.320;2022-08-20T13:26:17;0.85;;;0.40;;
27505;SDS011;14939;43.596;1.320;2022-08-20T13:28:43;0.40;;;0.40;;
27505;SDS011;14939;43.596;1.320;2022-08-20T13:31:09;0.82;;;0.47;;
27505;SDS011;14939;43.596;1.320;2022-08-20T13:33:34;1.38;;;0.50;;
27505;SDS011;14939;43.596;1.320;2022-08-20T13:36:00;2.08;;;0.40;;
27505;SDS011;14939;43.596;1.320;2022-08-20T13:38:25;0.57;;;0.40;;
27505;SDS011;14939;43.596;1.320;2022-08-20T13:40:52;0.98;;;0.40;;
27505;SDS011;14939;43.596;1.320;2022-08-20T13:43:17;0.63;;;0.40;;
27505;SDS011;14939;43.596;1.320;2022-08-20T13:45:43;1.05;;;0.50;;
27505;SDS011;14939;43.596;1.320;2022-08-20T13:48:09;1.52;;;0.43;;
27505;SDS011;14939;43.596;1.320;2022-08-20T13:50:35;0.68;;;0.40;;
27505;SDS011;14939;43.596;1.320;2022-08-20T13:53:01;1.10;;;0.35;;
27505;SDS011;14939;43.596;1.320;2022-08-20T13:55:27;1.02;;;0.40;;
27505;SDS011;14939;43.596;1.320;2022-08-20T13:57:53;1.30;;;0.40;;
27505;SDS011;14939;43.596;1.320;2022-08-20T14:00:27;0.45;;;0.40;;
27505;SDS011;14939;43.596;1.320;2022-08-20T14:02:55;0.30;;;0.30;;
27505;SDS011;14939;43.596;1.320;2022-08-20T14:05:21;1.23;;;0.70;;
27505;SDS011;14939;43.596;1.320;2022-08-20T14:07:47;0.93;;;0.47;;
27505;SDS011;14939;43.596;1.320;2022-08-20T14:10:19;2.55;;;0.40;;
27505;SDS011;14939;43.596;1.320;2022-08-20T14:12:48;1.45;;;0.30;;
27505;SDS011;14939;43.596;1.320;2022-08-20T14:15:14;1.30;;;0.50;;
27505;SDS011;14939;43.596;1.320;2022-08-20T14:17:41;0.65;;;0.40;;
27505;SDS011;14939;43.596;1.320;2022-08-20T14:20:14;0.60;;;0.20;;
27505;SDS011;14939;43.596;1.320;2022-08-20T14:22:43;0.52;;;0.20;;
27505;SDS011;14939;43.596;1.320;2022-08-20T14:25:10;0.30;;;0.30;;
27505;SDS011;14939;43.596;1.320;2022-08-20T14:27:38;0.70;;;0.32;;
27505;SDS011;14939;43.596;1.320;2022-08-20T14:30:05;0.63;;;0.38;;
27505;SDS011;14939;43.596;1.320;2022-08-20T14:32:33;1.05;;;0.32;;
27505;SDS011;14939;43.596;1.320;2022-08-20T14:34:59;0.50;;;0.30;;
27505;SDS011;14939;43.596;1.320;2022-08-20T14:37:27;0.50;;;0.30;;
27505;SDS011;14939;43.596;1.320;2022-08-20T14:39:55;1.30;;;0.30;;
27505;SDS011;14939;43.596;1.320;2022-08-20T14:42:22;1.27;;;0.40;;
27505;SDS011;14939;43.596;1.320;2022-08-20T14:44:50;2.58;;;0.40;;
27505;SDS011;14939;43.596;1.320;2022-08-20T14:47:17;0.52;;;0.38;;
27505;SDS011;14939;43.596;1.320;2022-08-20T14:49:44;2.28;;;0.40;;
27505;SDS011;14939;43.596;1.320;2022-08-20T14:52:12;0.90;;;0.55;;
27505;SDS011;14939;43.596;1.320;2022-08-20T14:54:38;0.70;;;0.40;;
27505;SDS011;14939;43.596;1.320;2022-08-20T14:57:05;1.10;;;0.43;;
27505;SDS011;14939;43.596;1.320;2022-08-20T14:59:31;0.65;;;0.43;;
27505;SDS011;14939;43.596;1.320;2022-08-20T15:01:57;0.95;;;0.30;;
27505;SDS011;14939;43.596;1.320;2022-08-20T15:04:23;0.50;;;0.40;;